createdAt,value
2023-03-02T00:02:22.351Z,14.60
2023-03-02T00:05:10.738Z,12.80
2023-03-02T00:07:59.122Z,10.90
2023-03-02T00:10:45.668Z,13.57
2023-03-02T00:13:35.221Z,12.97
2023-03-02T00:16:23.132Z,16.67
2023-03-02T00:19:09.474Z,12.93
2023-03-02T00:21:56.262Z,14.23
2023-03-02T00:24:42.660Z,13.90
2023-03-02T00:27:30.033Z,13.27
2023-03-02T00:30:17.542Z,10.27
2023-03-02T00:33:05.399Z,12.90
2023-03-02T00:35:52.157Z,15.27
2023-03-02T00:38:38.568Z,10.45
2023-03-02T00:41:24.917Z,11.77
2023-03-02T00:44:17.419Z,12.90
2023-03-02T00:47:04.090Z,10.53
2023-03-02T00:49:51.750Z,10.17
2023-03-02T00:52:38.382Z,13.93
2023-03-02T00:55:24.854Z,9.33
2023-03-02T00:58:11.175Z,16.17
2023-03-02T01:00:57.850Z,13.80
2023-03-02T01:03:44.474Z,13.10
2023-03-02T01:06:32.877Z,13.53
2023-03-02T01:09:19.742Z,11.50
2023-03-02T01:12:09.326Z,11.60
2023-03-02T01:14:55.983Z,10.80
2023-03-02T01:17:43.862Z,10.70
2023-03-02T01:20:30.708Z,11.00
2023-03-02T01:23:18.785Z,13.63
2023-03-02T01:26:05.662Z,12.03
2023-03-02T01:28:55.317Z,11.90
2023-03-02T01:31:41.756Z,12.33
2023-03-02T01:34:28.149Z,11.83
2023-03-02T01:37:14.579Z,11.47
2023-03-02T01:40:06.734Z,11.93
2023-03-02T01:42:58.259Z,10.13
2023-03-02T01:45:54.183Z,10.03
2023-03-02T01:48:45.955Z,11.30
2023-03-02T01:51:36.354Z,9.93
2023-03-02T01:54:24.556Z,14.03
2023-03-02T01:57:13.126Z,12.90
2023-03-02T02:00:06.938Z,12.20
2023-03-02T02:02:54.812Z,16.83
2023-03-02T02:05:43.967Z,11.87
2023-03-02T02:08:30.531Z,11.60
2023-03-02T02:11:17.195Z,13.80
2023-03-02T02:14:05.371Z,11.57
2023-03-02T02:16:52.968Z,12.40
2023-03-02T02:19:54.631Z,10.73
2023-03-02T02:22:51.309Z,8.33
2023-03-02T02:25:46.489Z,13.37
2023-03-02T02:28:38.252Z,9.13
2023-03-02T02:31:29.105Z,9.47
2023-03-02T02:34:22.391Z,13.33
2023-03-02T02:37:14.936Z,14.43
2023-03-02T02:40:07.135Z,14.50
2023-03-02T02:42:54.963Z,12.83
2023-03-02T02:45:43.530Z,13.07
2023-03-02T02:48:31.999Z,10.03
2023-03-02T02:51:22.617Z,14.17
2023-03-02T02:54:16.077Z,12.90
2023-03-02T02:57:04.868Z,8.93
2023-03-02T02:59:55.316Z,10.53
2023-03-02T03:02:48.014Z,13.30
2023-03-02T03:05:34.807Z,10.33
2023-03-02T03:08:56.890Z,11.73
2023-03-02T03:11:47.520Z,14.13
2023-03-02T03:14:37.082Z,10.30
2023-03-02T03:17:23.851Z,13.13
2023-03-02T03:20:16.999Z,13.77
2023-03-02T03:23:03.613Z,15.80
2023-03-02T03:25:50.242Z,11.17
2023-03-02T03:28:37.157Z,12.97
2023-03-02T03:31:23.517Z,14.10
2023-03-02T03:34:10.737Z,12.47
2023-03-02T03:37:01.737Z,11.10
2023-03-02T03:39:48.396Z,11.50
2023-03-02T03:42:34.749Z,11.57
2023-03-02T03:45:21.306Z,11.90
2023-03-02T03:48:08.017Z,13.57
2023-03-02T03:50:54.926Z,11.70
2023-03-02T03:53:42.689Z,15.13
2023-03-02T03:56:30.998Z,12.43
2023-03-02T03:59:19.940Z,14.07
2023-03-02T04:02:06.370Z,12.93
2023-03-02T04:04:52.881Z,14.63
2023-03-02T04:07:40.665Z,13.07
2023-03-02T04:10:29.046Z,15.97
2023-03-02T04:13:16.134Z,16.93
2023-03-02T04:16:02.960Z,14.47
2023-03-02T04:18:49.264Z,14.67
2023-03-02T04:21:35.800Z,14.77
2023-03-02T04:24:24.011Z,10.73
2023-03-02T04:27:11.835Z,14.37
2023-03-02T04:29:58.187Z,12.73
2023-03-02T04:32:44.886Z,16.43
2023-03-02T04:35:31.691Z,15.57
2023-03-02T04:38:18.096Z,15.40
2023-03-02T04:41:04.596Z,16.27
2023-03-02T04:43:52.489Z,21.07
2023-03-02T04:46:39.906Z,19.37
2023-03-02T04:49:27.146Z,18.73
2023-03-02T04:52:14.021Z,37.93
2023-03-02T04:55:00.539Z,21.57
2023-03-02T04:57:46.958Z,20.87
2023-03-02T05:00:35.296Z,27.07
2023-03-02T05:03:21.619Z,15.33
2023-03-02T05:06:08.652Z,18.33
2023-03-02T05:08:55.300Z,21.93
2023-03-02T05:11:42.381Z,15.30
2023-03-02T05:14:30.009Z,16.60
2023-03-02T05:17:17.935Z,13.17
2023-03-02T05:20:07.157Z,13.87
2023-03-02T05:22:54.162Z,20.00
2023-03-02T05:25:40.840Z,13.30
2023-03-02T05:28:28.506Z,20.50
2023-03-02T05:31:20.002Z,17.50
2023-03-02T05:34:10.563Z,12.80
2023-03-02T05:36:58.160Z,15.90
2023-03-02T05:39:44.711Z,14.30
2023-03-02T05:42:31.213Z,15.93
2023-03-02T05:45:21.416Z,18.60
2023-03-02T05:48:08.527Z,15.67
2023-03-02T05:50:56.800Z,16.93
2023-03-02T05:53:43.136Z,19.80
2023-03-02T05:56:29.393Z,15.30
2023-03-02T05:59:15.791Z,13.23
2023-03-02T06:02:02.609Z,16.40
2023-03-02T06:04:49.161Z,16.40
2023-03-02T06:07:37.090Z,13.13
2023-03-02T06:10:24.028Z,14.13
2023-03-02T06:13:10.326Z,19.47
2023-03-02T06:15:56.925Z,23.80
2023-03-02T06:18:43.712Z,25.17
2023-03-02T06:21:30.129Z,17.63
2023-03-02T06:24:17.805Z,16.63
2023-03-02T06:27:04.273Z,14.50
2023-03-02T06:29:50.799Z,16.03
2023-03-02T06:32:37.187Z,19.07
2023-03-02T06:35:24.869Z,17.77
2023-03-02T06:38:11.662Z,29.47
2023-03-02T06:40:59.475Z,14.80
2023-03-02T06:43:46.588Z,30.30
2023-03-02T06:46:33.400Z,20.10
2023-03-02T06:49:19.862Z,20.73
2023-03-02T06:52:07.250Z,35.73
2023-03-02T06:54:53.999Z,21.70
2023-03-02T06:57:41.824Z,19.07
2023-03-02T07:00:29.188Z,17.57
2023-03-02T07:03:15.762Z,17.10
2023-03-02T07:06:02.330Z,19.27
2023-03-02T07:08:48.977Z,37.40
2023-03-02T07:11:36.006Z,20.60
2023-03-02T07:14:23.855Z,23.40
2023-03-02T07:17:10.398Z,20.83
2023-03-02T07:19:56.724Z,15.13
2023-03-02T07:22:43.969Z,17.13
2023-03-02T07:25:30.690Z,23.17
2023-03-02T07:28:17.086Z,17.90
2023-03-02T07:31:04.873Z,23.93
2023-03-02T07:33:51.083Z,17.37
2023-03-02T07:36:37.482Z,19.03
2023-03-02T07:39:23.756Z,23.10
2023-03-02T07:42:11.736Z,19.10
2023-03-02T07:44:58.116Z,28.83
2023-03-02T07:47:45.902Z,23.13
2023-03-02T07:50:32.510Z,21.17
2023-03-02T07:53:19.029Z,20.03
2023-03-02T07:56:10.176Z,20.20
2023-03-02T07:58:56.574Z,18.80
2023-03-02T08:01:42.795Z,15.47
2023-03-02T08:04:30.526Z,21.90
2023-03-02T08:07:17.218Z,18.13
2023-03-02T08:10:04.169Z,23.37
2023-03-02T08:12:50.635Z,20.83
2023-03-02T08:15:37.054Z,19.67
2023-03-02T08:18:23.407Z,12.33
2023-03-02T08:21:15.331Z,15.13
2023-03-02T08:24:01.917Z,18.40
2023-03-02T08:26:48.417Z,19.83
2023-03-02T08:29:34.753Z,18.10
2023-03-02T08:32:21.340Z,21.47
2023-03-02T08:35:09.529Z,17.60
2023-03-02T08:37:59.590Z,28.90
2023-03-02T08:40:45.839Z,20.00
2023-03-02T08:43:32.356Z,18.37
2023-03-02T08:46:21.290Z,17.67
2023-03-02T08:49:07.602Z,17.00
2023-03-02T08:51:56.282Z,17.40
2023-03-02T08:54:44.373Z,19.83
2023-03-02T08:57:30.820Z,20.40
2023-03-02T09:00:18.640Z,23.60
2023-03-02T09:03:05.061Z,18.23
2023-03-02T09:05:51.543Z,23.23
2023-03-02T09:08:38.039Z,21.63
2023-03-02T09:11:26.229Z,20.10
2023-03-02T09:14:13.010Z,18.60
2023-03-02T09:17:00.406Z,19.20
2023-03-02T09:19:47.137Z,18.20
2023-03-02T09:22:35.809Z,18.23
2023-03-02T09:25:22.325Z,16.33
2023-03-02T09:28:10.048Z,14.53
2023-03-02T09:30:59.823Z,17.93
2023-03-02T09:33:46.467Z,20.03
2023-03-02T09:36:32.871Z,16.23
2023-03-02T09:39:19.499Z,20.93
2023-03-02T09:42:25.457Z,19.67
2023-03-02T09:45:31.031Z,19.43
2023-03-02T09:48:25.657Z,17.50
2023-03-02T09:51:24.146Z,18.37
2023-03-02T09:54:12.435Z,30.27
2023-03-02T09:57:00.498Z,15.47
2023-03-02T09:59:52.813Z,19.10
2023-03-02T10:02:47.543Z,21.97
2023-03-02T10:05:40.338Z,20.97
2023-03-02T10:08:29.954Z,18.73
2023-03-02T10:11:23.511Z,18.00
2023-03-02T10:14:16.202Z,17.53
2023-03-02T10:17:20.582Z,14.60
2023-03-02T10:20:18.040Z,15.87
2023-03-02T10:23:18.455Z,22.73
2023-03-02T10:26:15.621Z,18.47
2023-03-02T10:29:11.653Z,16.30
2023-03-02T10:32:01.917Z,14.33
2023-03-02T10:34:49.984Z,17.73
2023-03-02T10:37:37.535Z,22.10
2023-03-02T10:40:38.944Z,16.17
2023-03-02T10:43:31.711Z,16.40
2023-03-02T10:46:18.161Z,15.17
2023-03-02T10:49:04.493Z,17.80
2023-03-02T10:51:57.675Z,18.10
2023-03-02T10:54:47.356Z,14.93
2023-03-02T10:57:38.038Z,14.87
2023-03-02T11:00:25.915Z,16.87
2023-03-02T11:03:23.128Z,14.47
2023-03-02T11:06:19.707Z,14.97
2023-03-02T11:09:08.302Z,15.37
2023-03-02T11:11:58.908Z,14.63
2023-03-02T11:14:45.597Z,18.90
2023-03-02T11:17:35.153Z,18.63
2023-03-02T11:20:26.276Z,16.13
2023-03-02T11:23:20.636Z,24.47
2023-03-02T11:26:12.370Z,16.07
2023-03-02T11:29:05.498Z,17.63
2023-03-02T11:31:55.520Z,20.27
2023-03-02T11:34:48.259Z,14.83
2023-03-02T11:37:40.799Z,14.87
2023-03-02T11:40:32.620Z,15.33
2023-03-02T11:43:19.237Z,15.43
2023-03-02T11:46:21.540Z,16.87
2023-03-02T11:49:16.325Z,15.63
2023-03-02T11:52:03.319Z,14.70
2023-03-02T11:54:54.770Z,15.23
2023-03-02T11:57:48.553Z,15.67
2023-03-02T12:00:37.602Z,17.23
2023-03-02T12:03:39.338Z,39.47
2023-03-02T12:06:35.433Z,20.23
2023-03-02T12:09:35.601Z,19.17
2023-03-02T12:12:41.847Z,17.30
2023-03-02T12:15:39.489Z,18.53
2023-03-02T12:18:48.841Z,18.37
2023-03-02T12:21:41.896Z,17.47
2023-03-02T12:24:30.561Z,19.83
2023-03-02T12:27:28.492Z,18.73
2023-03-02T12:30:28.600Z,13.93
2023-03-02T12:33:21.426Z,18.63
2023-03-02T12:36:15.659Z,14.97
2023-03-02T12:39:19.747Z,16.77
2023-03-02T12:42:33.128Z,20.83
2023-03-02T12:45:35.957Z,18.13
2023-03-02T12:48:28.478Z,17.53
2023-03-02T12:51:21.479Z,18.73
2023-03-02T12:54:14.821Z,14.87
2023-03-02T12:57:08.897Z,14.67
2023-03-02T12:59:58.037Z,15.33
2023-03-02T13:02:48.164Z,19.03
2023-03-02T13:05:36.398Z,20.87
2023-03-02T13:08:29.173Z,19.50
2023-03-02T13:11:23.597Z,20.27
2023-03-02T13:14:21.654Z,24.97
2023-03-02T13:17:21.037Z,17.97
2023-03-02T13:20:08.393Z,24.90
2023-03-02T13:22:55.616Z,22.40
2023-03-02T13:25:51.748Z,25.43
2023-03-02T13:28:40.000Z,20.60
2023-03-02T13:31:26.548Z,22.43
2023-03-02T13:34:22.653Z,22.07
2023-03-02T13:37:24.254Z,23.53
2023-03-02T13:40:32.210Z,24.17
2023-03-02T13:43:37.223Z,29.63
2023-03-02T13:46:29.824Z,24.00
2023-03-02T13:49:27.725Z,24.97
2023-03-02T13:52:19.664Z,27.30
2023-03-02T13:55:07.507Z,29.47
2023-03-02T13:57:55.345Z,28.50
2023-03-02T14:00:43.516Z,30.87
2023-03-02T14:03:31.935Z,30.27
2023-03-02T14:06:18.958Z,30.30
2023-03-02T14:09:05.791Z,31.67
2023-03-02T14:11:56.025Z,32.80
2023-03-02T14:14:44.483Z,29.67
2023-03-02T14:17:33.105Z,32.30
2023-03-02T14:20:21.352Z,30.03
2023-03-02T14:23:09.461Z,29.83
2023-03-02T14:25:57.429Z,29.73
2023-03-02T14:28:44.797Z,34.50
2023-03-02T14:31:31.848Z,31.70
2023-03-02T14:34:20.120Z,32.77
2023-03-02T14:37:08.782Z,33.33
2023-03-02T14:39:55.837Z,32.93
2023-03-02T14:42:42.184Z,33.47
2023-03-02T14:45:30.787Z,33.63
2023-03-02T14:48:17.644Z,32.20
2023-03-02T14:51:05.694Z,33.37
2023-03-02T14:53:53.863Z,37.13
2023-03-02T14:56:40.476Z,36.43
2023-03-02T14:59:26.915Z,35.27
2023-03-02T15:02:24.786Z,34.90
2023-03-02T15:05:12.519Z,33.87
2023-03-02T15:08:00.218Z,31.67
2023-03-02T15:10:47.786Z,38.03
2023-03-02T15:13:34.301Z,33.83
2023-03-02T15:16:21.163Z,35.73
2023-03-02T15:19:07.751Z,44.13
2023-03-02T15:21:54.439Z,38.03
2023-03-02T15:24:42.347Z,47.43
2023-03-02T15:27:28.798Z,48.90
2023-03-02T15:30:15.183Z,42.27
2023-03-02T15:33:01.797Z,34.23
2023-03-02T15:35:55.249Z,36.03
2023-03-02T15:38:41.778Z,38.03
2023-03-02T15:41:29.642Z,35.20
2023-03-02T15:44:21.673Z,39.10
2023-03-02T15:47:08.680Z,38.97
2023-03-02T15:49:55.006Z,38.03
2023-03-02T15:52:41.914Z,34.70
2023-03-02T15:55:28.357Z,36.80
2023-03-02T15:58:17.696Z,34.83
2023-03-02T16:01:08.809Z,39.87
2023-03-02T16:03:55.529Z,43.27
2023-03-02T16:06:42.100Z,46.60
2023-03-02T16:09:30.932Z,44.73
2023-03-02T16:12:17.830Z,50.83
2023-03-02T16:15:06.739Z,39.60
2023-03-02T16:17:53.398Z,37.47
2023-03-02T16:20:40.396Z,45.17
2023-03-02T16:23:26.673Z,45.30
2023-03-02T16:26:16.450Z,41.90
2023-03-02T16:29:03.325Z,45.13
2023-03-02T16:31:51.321Z,46.70
2023-03-02T16:34:37.971Z,45.63
2023-03-02T16:37:24.630Z,52.23
2023-03-02T16:40:12.923Z,44.03
2023-03-02T16:42:59.648Z,48.27
2023-03-02T16:45:47.620Z,46.33
2023-03-02T16:48:35.478Z,42.77
2023-03-02T16:51:22.635Z,49.00
2023-03-02T16:54:09.115Z,43.87
2023-03-02T16:56:55.644Z,41.80
2023-03-02T16:59:42.021Z,45.17
2023-03-02T17:02:29.246Z,48.37
2023-03-02T17:05:18.574Z,53.83
2023-03-02T17:08:10.001Z,53.37
2023-03-02T17:10:56.772Z,50.13
2023-03-02T17:13:43.370Z,54.13
2023-03-02T17:16:30.134Z,60.53
2023-03-02T17:19:17.757Z,52.23
2023-03-02T17:22:08.457Z,56.20
2023-03-02T17:24:54.756Z,53.90
2023-03-02T17:27:41.263Z,56.40
2023-03-02T17:30:27.745Z,53.63
2023-03-02T17:33:14.479Z,52.07
2023-03-02T17:36:06.181Z,57.60
2023-03-02T17:38:54.397Z,62.60
2023-03-02T17:41:40.944Z,62.60
2023-03-02T17:44:27.500Z,62.27
2023-03-02T17:47:16.218Z,60.47
2023-03-02T17:50:04.558Z,62.50
2023-03-02T17:52:51.051Z,56.00
2023-03-02T17:55:39.434Z,60.67
2023-03-02T17:58:28.545Z,61.37
2023-03-02T18:01:22.905Z,62.67
2023-03-02T18:04:09.257Z,58.80
2023-03-02T18:06:55.795Z,65.33
2023-03-02T18:09:42.479Z,61.27
2023-03-02T18:12:30.394Z,60.43
2023-03-02T18:15:17.287Z,55.13
2023-03-02T18:18:03.769Z,61.60
2023-03-02T18:20:50.444Z,62.97
2023-03-02T18:23:37.279Z,55.47
2023-03-02T18:26:23.680Z,66.03
2023-03-02T18:29:11.797Z,67.73
2023-03-02T18:31:58.274Z,62.23
2023-03-02T18:34:44.580Z,64.73
2023-03-02T18:37:33.882Z,66.57
2023-03-02T18:40:20.485Z,68.07
2023-03-02T18:43:07.112Z,63.17
2023-03-02T18:45:56.773Z,58.03
2023-03-02T18:48:43.124Z,57.20
2023-03-02T18:51:29.587Z,60.33
2023-03-02T18:54:16.439Z,52.83
2023-03-02T18:57:03.536Z,55.33
2023-03-02T18:59:49.931Z,51.50
2023-03-02T19:02:37.626Z,53.50
2023-03-02T19:05:25.132Z,57.27
2023-03-02T19:08:11.723Z,48.50
2023-03-02T19:10:59.040Z,57.30
2023-03-02T19:13:45.627Z,52.60
2023-03-02T19:16:32.222Z,54.73
2023-03-02T19:19:19.930Z,55.47
2023-03-02T19:22:07.232Z,56.33
2023-03-02T19:24:53.759Z,52.97
2023-03-02T19:27:40.228Z,52.30
2023-03-02T19:30:27.809Z,55.43
2023-03-02T19:33:14.460Z,51.00
2023-03-02T19:36:02.377Z,45.60
2023-03-02T19:38:48.948Z,48.77
2023-03-02T19:41:35.709Z,43.13
2023-03-02T19:44:22.436Z,45.13
2023-03-02T19:47:08.694Z,44.47
2023-03-02T19:49:55.068Z,41.33
2023-03-02T19:52:43.000Z,41.73
2023-03-02T19:55:29.621Z,47.03
2023-03-02T19:58:17.557Z,40.90
2023-03-02T20:01:04.849Z,41.33
2023-03-02T20:03:52.512Z,35.80
2023-03-02T20:06:38.992Z,40.27
2023-03-02T20:09:27.767Z,36.73
2023-03-02T20:12:14.389Z,38.37
2023-03-02T20:15:00.734Z,37.63
2023-03-02T20:17:47.158Z,46.70
2023-03-02T20:20:33.477Z,41.17
2023-03-02T20:23:20.134Z,38.87
2023-03-02T20:26:08.563Z,37.97
2023-03-02T20:28:56.524Z,35.37
2023-03-02T20:31:43.196Z,46.42
2023-03-02T20:34:30.129Z,43.43
2023-03-02T20:37:16.819Z,40.27
2023-03-02T20:40:04.256Z,40.77
2023-03-02T20:42:53.139Z,48.10
2023-03-02T20:45:40.032Z,36.03
2023-03-02T20:48:26.333Z,35.53
2023-03-02T20:51:14.896Z,37.30
2023-03-02T20:54:01.367Z,32.93
2023-03-02T20:56:48.012Z,35.47
2023-03-02T20:59:36.357Z,29.97
2023-03-02T21:02:23.290Z,34.03
2023-03-02T21:05:10.795Z,34.50
2023-03-02T21:07:57.872Z,48.27
2023-03-02T21:10:44.691Z,41.10
2023-03-02T21:13:31.680Z,33.70
2023-03-02T21:16:23.845Z,35.50
2023-03-02T21:19:15.140Z,35.17
2023-03-02T21:22:02.029Z,40.30
2023-03-02T21:24:48.921Z,37.47
2023-03-02T21:27:35.397Z,38.33
2023-03-02T21:30:24.167Z,37.17
2023-03-02T21:33:11.810Z,29.67
2023-03-02T21:35:58.918Z,33.97
2023-03-02T21:38:45.407Z,30.50
2023-03-02T21:41:32.185Z,28.57
2023-03-02T21:44:19.122Z,31.53
2023-03-02T21:47:06.023Z,28.73
2023-03-02T21:49:54.040Z,29.23
2023-03-02T21:52:40.904Z,28.30
2023-03-02T21:55:27.565Z,26.87
2023-03-02T21:58:14.373Z,29.83
2023-03-02T22:01:00.837Z,31.90
2023-03-02T22:03:47.321Z,29.23
2023-03-02T22:06:37.550Z,29.73
2023-03-02T22:09:25.909Z,36.30
2023-03-02T22:12:14.532Z,39.63
2023-03-02T22:15:04.186Z,34.50
2023-03-02T22:17:52.336Z,30.87
2023-03-02T22:20:40.124Z,33.67
2023-03-02T22:23:28.538Z,33.77
2023-03-02T22:26:17.537Z,27.97
2023-03-02T22:29:13.518Z,28.77
2023-03-02T22:32:16.453Z,27.27
2023-03-02T22:35:14.869Z,30.13
2023-03-02T22:38:09.886Z,32.43
2023-03-02T22:40:58.478Z,24.13
2023-03-02T22:43:45.807Z,25.53
2023-03-02T22:46:32.384Z,24.87
2023-03-02T22:49:18.980Z,34.17
2023-03-02T22:52:14.007Z,28.50
2023-03-02T22:55:00.506Z,26.73
2023-03-02T22:57:48.228Z,25.87
2023-03-02T23:00:38.390Z,22.07
2023-03-02T23:03:29.044Z,19.37
2023-03-02T23:06:28.290Z,21.50
2023-03-02T23:09:16.832Z,21.17
2023-03-02T23:12:13.431Z,27.03
2023-03-02T23:15:01.686Z,24.00
2023-03-02T23:17:48.345Z,24.93
2023-03-02T23:20:35.124Z,20.30
2023-03-02T23:23:25.153Z,21.70
2023-03-02T23:26:13.603Z,18.03
2023-03-02T23:29:00.276Z,19.87
2023-03-02T23:31:48.485Z,22.47
2023-03-02T23:34:34.910Z,21.67
2023-03-02T23:37:21.197Z,18.53
2023-03-02T23:40:09.114Z,21.40
2023-03-02T23:42:56.248Z,25.07
2023-03-02T23:45:42.903Z,19.13
2023-03-02T23:48:30.483Z,24.37
2023-03-02T23:51:17.351Z,26.80
2023-03-02T23:54:04.807Z,19.40
2023-03-02T23:56:51.314Z,21.23
2023-03-02T23:59:37.873Z,25.13
